Current Weather

Des Moines Intl

Des Moines, Iowa (KDSM)

Report from: Wednesday, August 17, 2022 7:54 PM CDT
Current time: Wednesday, August 17, 2022 8:43 PM CDT

Nearby weather
Weather history
Weather forecast

Temperature25.6°C (78.1°F)
Dew point13.9°C (57.0°F)
Winds 3 kts (1.5 m/s, 3.5 mph) East-Southeast (120°)
Visibility10 mi. (16.1 km)
Clouds Few clouds 6,000 ft. (1,829 m)
Few clouds 25,000 ft. (7,620 m)
Altimeter30.09 in.Hg (1019 mB)
Relative humidity48 %
Density altitude1,256 ft. (383 m)
Sea-level pressure101.9 kPa (1019 mB, 30.08 in.Hg)
Remarks Automated weather observing station with precipitation discriminator
Flight conditions Visual Meteorological Conditions
Raw dataKDSM 180054Z 12003KT 10SM FEW060 FEW250 26/14 A3009 RMK AO2 SLP185 T02560139
An error has occurred. This application may no longer respond until reloaded. Reload 🗙